Time;durP1;ratioP1;P1;durP2;ratioP2;P2;SDS_P1;SDS_P2;PMS_P1;PMS_P2;Temp;Humidity;BMP_temperature;BMP_pressure;BME280_temperature;BME280_humidity;BME280_pressure;Samples;Min_cycle;Max_cycle;Signal;HPM_P1;HPM_P2
2023/05/22 00:00:08;;;;;;;26.83;25.33;;;;;;;;;;4960023;28;20204;-64
2023/05/22 00:02:37;;;;;;;30.10;28.40;;;;;;;;;;4962071;28;20047;-63
2023/05/22 00:05:04;;;;;;;29.38;27.77;;;;;;;;;;4962289;28;20035;-64
2023/05/22 00:07:29;;;;;;;32.08;30.33;;;;;;;;;;4960952;28;20046;-63
2023/05/22 00:09:55;;;;;;;45.63;43.17;;;;;;;;;;4958551;28;20327;-64
2023/05/22 00:12:20;;;;;;;50.53;47.80;;;;;;;;;;4960274;28;20301;-64
2023/05/22 00:14:46;;;;;;;50.30;47.63;;;;;;;;;;4960108;28;20357;-63
2023/05/22 00:17:13;;;;;;;52.03;49.17;;;;;;;;;;4962847;28;20034;-64
2023/05/22 00:19:39;;;;;;;41.50;39.33;;;;;;;;;;4960668;28;20059;-63
2023/05/22 00:22:04;;;;;;;42.40;40.15;;;;;;;;;;4959729;28;20070;-63
2023/05/22 00:24:30;;;;;;;40.10;37.97;;;;;;;;;;4960538;28;20465;-64
2023/05/22 00:26:56;;;;;;;40.53;38.38;;;;;;;;;;4960463;28;20113;-64
2023/05/22 00:29:21;;;;;;;40.40;38.08;;;;;;;;;;4960979;28;20134;-62
2023/05/22 00:31:47;;;;;;;44.97;42.45;;;;;;;;;;4959707;28;20041;-63
2023/05/22 00:34:12;;;;;;;41.78;39.50;;;;;;;;;;4960504;28;20039;-63
2023/05/22 00:36:38;;;;;;;42.50;40.30;;;;;;;;;;4960601;28;20113;-63
2023/05/22 00:39:03;;;;;;;39.95;37.78;;;;;;;;;;4960607;28;20477;-63
2023/05/22 00:41:32;;;;;;;41.45;39.28;;;;;;;;;;4960260;28;20500;-63
2023/05/22 00:43:58;;;;;;;37.50;35.40;;;;;;;;;;4957813;28;20502;-62
2023/05/22 00:46:24;;;;;;;38.45;36.35;;;;;;;;;;4959472;28;20472;-62
2023/05/22 00:48:51;;;;;;;52.08;48.88;;;;;;;;;;4959170;28;20043;-63
2023/05/22 00:51:18;;;;;;;53.35;50.33;;;;;;;;;;4959095;28;20491;-62
2023/05/22 00:53:45;;;;;;;53.67;50.88;;;;;;;;;;4958188;28;20031;-62
2023/05/22 00:56:11;;;;;;;54.22;51.35;;;;;;;;;;4958728;28;20601;-63
2023/05/22 00:58:37;;;;;;;59.17;56.10;;;;;;;;;;4957229;28;20070;-63
2023/05/22 01:01:06;;;;;;;62.35;59.13;;;;;;;;;;4961346;28;20078;-62
2023/05/22 01:03:32;;;;;;;68.65;62.80;;;;;;;;;;4959035;28;20668;-63
2023/05/22 01:05:58;;;;;;;65.15;61.78;;;;;;;;;;4961713;28;20047;-63
2023/05/22 01:08:23;;;;;;;63.05;59.80;;;;;;;;;;4956199;28;20035;-63
2023/05/22 01:10:55;;;;;;;63.88;60.58;;;;;;;;;;4957458;28;20465;-64
2023/05/22 01:13:23;;;;;;;60.17;57.13;;;;;;;;;;4960523;28;20038;-63
2023/05/22 01:16:19;;;;;;;59.53;56.45;;;;;;;;;;4959376;28;20158;-63
2023/05/22 01:19:22;;;;;;;52.63;49.90;;;;;;;;;;4958554;28;20034;-63
2023/05/22 01:22:03;;;;;;;49.47;46.75;;;;;;;;;;4955621;28;20027;-63
2023/05/22 01:25:05;;;;;;;42.95;40.55;;;;;;;;;;4961305;28;20108;-63
2023/05/22 01:27:38;;;;;;;38.83;36.67;;;;;;;;;;4970777;28;20516;-64
2023/05/22 01:30:41;;;;;;;38.83;36.72;;;;;;;;;;4957193;28;20047;-64
2023/05/22 01:33:08;;;;;;;32.30;30.48;;;;;;;;;;4958909;28;20542;-64
2023/05/22 01:35:37;;;;;;;33.78;31.92;;;;;;;;;;4957017;28;20142;-63
2023/05/22 01:38:03;;;;;;;29.75;28.05;;;;;;;;;;4959794;28;20039;-64
2023/05/22 01:40:29;;;;;;;29.65;27.95;;;;;;;;;;4960105;28;20590;-65
2023/05/22 01:42:55;;;;;;;28.88;27.10;;;;;;;;;;4958290;28;20035;-63
2023/05/22 01:45:21;;;;;;;27.92;26.35;;;;;;;;;;4960510;28;20522;-64
2023/05/22 01:47:46;;;;;;;28.48;26.88;;;;;;;;;;4959929;28;20031;-64
2023/05/22 01:50:12;;;;;;;27.20;25.58;;;;;;;;;;4958527;28;20492;-64
2023/05/22 01:53:03;;;;;;;28.42;26.70;;;;;;;;;;4960101;28;20038;-64
2023/05/22 01:55:41;;;;;;;26.35;24.83;;;;;;;;;;4948855;28;20142;-64
2023/05/22 01:58:25;;;;;;;28.45;26.77;;;;;;;;;;4958478;28;20034;-64
2023/05/22 02:00:55;;;;;;;27.58;25.83;;;;;;;;;;4960244;28;20035;-64
2023/05/22 02:03:21;;;;;;;27.05;25.52;;;;;;;;;;4962511;28;20062;-63
2023/05/22 02:05:52;;;;;;;28.65;26.88;;;;;;;;;;4958912;28;20457;-64
2023/05/22 02:08:19;;;;;;;27.70;26.15;;;;;;;;;;4957181;28;20054;-65
2023/05/22 02:10:45;;;;;;;28.42;26.77;;;;;;;;;;4960492;28;20042;-66
2023/05/22 02:13:11;;;;;;;28.77;26.98;;;;;;;;;;4956052;28;20050;-66
2023/05/22 02:15:36;;;;;;;26.63;25.13;;;;;;;;;;4957491;28;20039;-65
2023/05/22 02:18:02;;;;;;;26.80;25.25;;;;;;;;;;4959861;28;20476;-65
2023/05/22 02:20:28;;;;;;;29.30;26.60;;;;;;;;;;4955269;28;20141;-66
2023/05/22 02:22:53;;;;;;;26.27;24.70;;;;;;;;;;4957288;28;20146;-65
2023/05/22 02:25:18;;;;;;;24.83;23.23;;;;;;;;;;4959265;28;20409;-65
2023/05/22 02:27:46;;;;;;;29.08;27.45;;;;;;;;;;4960155;28;20071;-67
2023/05/22 02:30:13;;;;;;;28.60;26.95;;;;;;;;;;4960012;28;20045;-67
2023/05/22 02:32:39;;;;;;;26.77;25.27;;;;;;;;;;4957133;28;20430;-65
2023/05/22 02:35:04;;;;;;;23.38;21.98;;;;;;;;;;4961043;28;20070;-65
2023/05/22 02:37:30;;;;;;;21.92;20.73;;;;;;;;;;4957761;28;20070;-65
2023/05/22 02:39:56;;;;;;;19.77;18.67;;;;;;;;;;4960453;28;20038;-64
2023/05/22 02:42:21;;;;;;;22.00;20.67;;;;;;;;;;4958462;28;20034;-65
2023/05/22 02:44:47;;;;;;;24.00;22.52;;;;;;;;;;4960657;28;20445;-64
2023/05/22 02:47:12;;;;;;;24.25;22.65;;;;;;;;;;4961193;28;20457;-66
2023/05/22 02:49:37;;;;;;;24.95;23.42;;;;;;;;;;4962435;28;20465;-65
2023/05/22 02:52:03;;;;;;;24.25;22.75;;;;;;;;;;4962417;28;20030;-64
2023/05/22 02:54:28;;;;;;;34.15;32.22;;;;;;;;;;4958101;28;20469;-65
2023/05/22 02:56:54;;;;;;;35.15;33.22;;;;;;;;;;4960852;28;20043;-65
2023/05/22 02:59:19;;;;;;;38.97;36.85;;;;;;;;;;4962183;28;20043;-65
2023/05/22 03:01:47;;;;;;;42.03;39.78;;;;;;;;;;4961699;28;20035;-65
2023/05/22 03:04:12;;;;;;;43.85;41.50;;;;;;;;;;4959533;28;20129;-65
2023/05/22 03:06:38;;;;;;;44.03;41.60;;;;;;;;;;4960383;28;20126;-66
2023/05/22 03:09:04;;;;;;;44.17;41.80;;;;;;;;;;4962220;28;20034;-66
2023/05/22 03:11:30;;;;;;;43.10;40.78;;;;;;;;;;4963047;28;20046;-65
2023/05/22 03:13:56;;;;;;;39.03;36.95;;;;;;;;;;4962460;28;20043;-65
2023/05/22 03:16:21;;;;;;;33.00;31.00;;;;;;;;;;4961522;28;20066;-65
2023/05/22 03:18:50;;;;;;;31.33;29.55;;;;;;;;;;4962719;28;20361;-65
2023/05/22 03:21:15;;;;;;;28.42;26.83;;;;;;;;;;4965549;28;20042;-64
2023/05/22 03:23:40;;;;;;;26.92;25.25;;;;;;;;;;4961705;28;20100;-64
2023/05/22 03:26:06;;;;;;;25.67;24.13;;;;;;;;;;4961688;28;20042;-65
2023/05/22 03:28:31;;;;;;;23.90;22.50;;;;;;;;;;4960298;28;20126;-64
2023/05/22 03:30:56;;;;;;;20.95;19.75;;;;;;;;;;4965099;28;20087;-64
2023/05/22 03:33:22;;;;;;;21.02;19.83;;;;;;;;;;4958872;28;20350;-64
2023/05/22 03:35:47;;;;;;;21.30;19.60;;;;;;;;;;4960407;28;20113;-65
2023/05/22 03:38:12;;;;;;;18.75;17.65;;;;;;;;;;4962936;28;20046;-61
2023/05/22 03:40:38;;;;;;;17.20;15.82;;;;;;;;;;4963014;28;20039;-65
2023/05/22 03:43:03;;;;;;;16.15;15.05;;;;;;;;;;4958057;28;20062;-64
2023/05/22 03:45:28;;;;;;;16.38;15.27;;;;;;;;;;4958728;28;20066;-61
2023/05/22 03:47:54;;;;;;;15.20;14.30;;;;;;;;;;4960475;28;20034;-61
2023/05/22 03:50:19;;;;;;;16.70;15.60;;;;;;;;;;4960076;28;20039;-62
2023/05/22 03:52:45;;;;;;;16.35;15.25;;;;;;;;;;4961901;28;20035;-61
2023/05/22 03:55:10;;;;;;;17.88;16.73;;;;;;;;;;4958760;28;20085;-62
2023/05/22 03:57:36;;;;;;;19.15;17.88;;;;;;;;;;4958219;28;20612;-62
2023/05/22 04:00:08;;;;;;;18.33;17.23;;;;;;;;;;4958650;28;20074;-65
2023/05/22 04:02:37;;;;;;;19.38;18.20;;;;;;;;;;4961195;28;20405;-65
2023/05/22 04:05:04;;;;;;;20.88;19.65;;;;;;;;;;4959493;28;20089;-65
2023/05/22 04:07:31;;;;;;;23.83;22.45;;;;;;;;;;4957828;28;20039;-65
2023/05/22 04:09:56;;;;;;;28.05;26.55;;;;;;;;;;4963726;28;20038;-62
2023/05/22 04:12:22;;;;;;;27.65;26.10;;;;;;;;;;4959551;28;20093;-65
2023/05/22 04:14:47;;;;;;;30.80;29.13;;;;;;;;;;4963475;28;20037;-65
2023/05/22 04:17:12;;;;;;;32.00;30.27;;;;;;;;;;4959728;28;20049;-65
2023/05/22 04:19:38;;;;;;;31.75;30.00;;;;;;;;;;4957649;28;20081;-65
2023/05/22 04:22:03;;;;;;;32.60;30.77;;;;;;;;;;4960088;28;20043;-65
2023/05/22 04:24:28;;;;;;;35.13;33.28;;;;;;;;;;4958064;28;20031;-65
2023/05/22 04:26:54;;;;;;;36.25;33.75;;;;;;;;;;4958197;28;20630;-65
2023/05/22 04:29:21;;;;;;;35.63;33.70;;;;;;;;;;4961476;28;20030;-65
2023/05/22 04:31:46;;;;;;;38.92;36.90;;;;;;;;;;4957233;28;20097;-65
2023/05/22 04:34:14;;;;;;;40.72;38.47;;;;;;;;;;4960667;28;20401;-62
2023/05/22 04:36:39;;;;;;;43.05;40.83;;;;;;;;;;4946904;28;20031;-62
2023/05/22 04:39:05;;;;;;;44.92;42.55;;;;;;;;;;4957401;28;20101;-65
2023/05/22 04:41:31;;;;;;;42.25;40.03;;;;;;;;;;4956290;28;20031;-65
2023/05/22 04:43:57;;;;;;;46.92;44.17;;;;;;;;;;4959873;28;20039;-66
2023/05/22 04:46:22;;;;;;;47.03;44.58;;;;;;;;;;4962334;28;20039;-65
2023/05/22 04:48:48;;;;;;;51.63;48.60;;;;;;;;;;4962019;28;20576;-66
2023/05/22 04:51:13;;;;;;;52.35;49.67;;;;;;;;;;4957148;28;20030;-62
2023/05/22 04:53:39;;;;;;;54.40;51.17;;;;;;;;;;4956671;28;20034;-62
2023/05/22 04:56:05;;;;;;;53.97;51.13;;;;;;;;;;4960802;28;20651;-62
2023/05/22 04:58:31;;;;;;;58.25;55.15;;;;;;;;;;4961365;28;20043;-62
2023/05/22 05:00:56;;;;;;;61.00;57.85;;;;;;;;;;4958989;28;20054;-66
2023/05/22 05:03:24;;;;;;;61.63;58.45;;;;;;;;;;4956656;28;20046;-62
2023/05/22 05:05:50;;;;;;;66.10;62.67;;;;;;;;;;4960050;28;20421;-62
2023/05/22 05:08:15;;;;;;;67.93;64.45;;;;;;;;;;4960131;28;20042;-62
2023/05/22 05:10:41;;;;;;;71.40;67.72;;;;;;;;;;4959762;28;20049;-62
2023/05/22 05:13:06;;;;;;;74.85;71.00;;;;;;;;;;4959705;28;20465;-62
2023/05/22 05:15:31;;;;;;;74.40;70.65;;;;;;;;;;4957614;28;20027;-62
2023/05/22 05:17:57;;;;;;;69.78;66.00;;;;;;;;;;4959634;28;20038;-66
2023/05/22 05:20:23;;;;;;;80.57;76.53;;;;;;;;;;4957253;28;20042;-67
2023/05/22 05:22:49;;;;;;;79.75;75.47;;;;;;;;;;4962907;28;20043;-65
2023/05/22 05:25:14;;;;;;;76.25;72.38;;;;;;;;;;4960628;28;20450;-67
2023/05/22 05:27:39;;;;;;;56.47;53.53;;;;;;;;;;4956881;28;20354;-66
2023/05/22 05:30:05;;;;;;;74.18;70.32;;;;;;;;;;4957033;28;20457;-66
2023/05/22 05:32:31;;;;;;;38.88;36.75;;;;;;;;;;4959037;28;20524;-66
2023/05/22 05:34:56;;;;;;;38.22;36.08;;;;;;;;;;4959129;28;20027;-66
2023/05/22 05:37:22;;;;;;;42.17;39.83;;;;;;;;;;4959308;28;20027;-66
2023/05/22 05:39:47;;;;;;;30.55;28.88;;;;;;;;;;4958324;28;20754;-67
2023/05/22 05:42:13;;;;;;;44.95;42.45;;;;;;;;;;4959537;28;20074;-60
2023/05/22 05:44:38;;;;;;;35.58;33.60;;;;;;;;;;4958795;28;20035;-65
2023/05/22 05:47:04;;;;;;;33.85;32.05;;;;;;;;;;4957774;28;20074;-65
2023/05/22 05:49:29;;;;;;;33.42;31.63;;;;;;;;;;4957138;28;20171;-60
2023/05/22 05:51:55;;;;;;;23.45;22.15;;;;;;;;;;4957434;28;20075;-60
2023/05/22 05:54:20;;;;;;;34.47;32.40;;;;;;;;;;4955558;28;20032;-60
2023/05/22 05:56:46;;;;;;;124.80;118.53;;;;;;;;;;4957942;28;20086;-64
2023/05/22 05:59:11;;;;;;;23.80;22.05;;;;;;;;;;4961255;28;20042;-61
2023/05/22 06:01:38;;;;;;;18.92;17.45;;;;;;;;;;4959906;28;20039;-61
2023/05/22 06:04:04;;;;;;;17.85;16.73;;;;;;;;;;4956199;28;20062;-61
2023/05/22 06:06:34;;;;;;;23.63;22.13;;;;;;;;;;4954783;28;20551;-64
2023/05/22 06:09:00;;;;;;;25.45;24.02;;;;;;;;;;4955986;28;20038;-64
2023/05/22 06:11:25;;;;;;;16.38;15.38;;;;;;;;;;4957734;28;20038;-62
2023/05/22 06:13:50;;;;;;;17.10;16.00;;;;;;;;;;4961244;28;20501;-64
2023/05/22 06:16:16;;;;;;;17.80;16.60;;;;;;;;;;4957957;28;20038;-62
2023/05/22 06:18:41;;;;;;;19.55;18.42;;;;;;;;;;4958332;28;20053;-62
2023/05/22 06:21:07;;;;;;;18.02;16.92;;;;;;;;;;4959298;28;20039;-65
2023/05/22 06:23:32;;;;;;;20.95;19.42;;;;;;;;;;4962334;28;20360;-64
2023/05/22 06:25:57;;;;;;;18.27;17.17;;;;;;;;;;4961466;28;20077;-62
2023/05/22 06:28:23;;;;;;;17.98;16.67;;;;;;;;;;4964082;28;20142;-64
2023/05/22 06:30:48;;;;;;;19.15;17.95;;;;;;;;;;4963832;28;20465;-63
2023/05/22 06:33:14;;;;;;;17.95;16.90;;;;;;;;;;4962601;28;20174;-63
2023/05/22 06:35:39;;;;;;;23.95;22.48;;;;;;;;;;4963218;28;20194;-61
2023/05/22 06:38:05;;;;;;;21.40;20.10;;;;;;;;;;4961754;28;20042;-61
2023/05/22 06:40:30;;;;;;;21.10;19.85;;;;;;;;;;4959798;28;20497;-61
2023/05/22 06:42:57;;;;;;;23.95;22.38;;;;;;;;;;4960076;28;20038;-61
2023/05/22 06:45:22;;;;;;;27.05;25.48;;;;;;;;;;4960864;28;20046;-61
2023/05/22 06:47:51;;;;;;;27.08;25.50;;;;;;;;;;4956062;28;20528;-63
2023/05/22 06:50:17;;;;;;;28.42;26.83;;;;;;;;;;4961844;28;20038;-63
2023/05/22 06:52:42;;;;;;;29.27;27.58;;;;;;;;;;4960492;28;20117;-63
2023/05/22 06:55:08;;;;;;;25.40;24.00;;;;;;;;;;4961355;28;20023;-64
2023/05/22 06:57:33;;;;;;;32.83;31.02;;;;;;;;;;4963007;28;20718;-61
2023/05/22 06:59:59;;;;;;;37.03;35.05;;;;;;;;;;4962689;28;20098;-61
2023/05/22 07:02:25;;;;;;;37.85;35.85;;;;;;;;;;4957833;28;20039;-61
2023/05/22 07:04:53;;;;;;;48.58;45.92;;;;;;;;;;4973441;28;20587;-61
2023/05/22 07:07:19;;;;;;;48.10;45.60;;;;;;;;;;4959892;28;20042;-63
2023/05/22 07:09:44;;;;;;;56.55;53.60;;;;;;;;;;4962014;28;20111;-63
2023/05/22 07:12:10;;;;;;;50.63;48.00;;;;;;;;;;4959433;28;20614;-62
2023/05/22 07:14:35;;;;;;;28.83;27.17;;;;;;;;;;4959523;28;20146;-61
2023/05/22 07:17:00;;;;;;;58.30;55.33;;;;;;;;;;4960447;28;20086;-61
2023/05/22 07:19:26;;;;;;;59.45;56.25;;;;;;;;;;4958395;28;20098;-63
2023/05/22 07:21:53;;;;;;;53.10;50.33;;;;;;;;;;4961389;28;20062;-63
2023/05/22 07:24:18;;;;;;;58.67;55.67;;;;;;;;;;4962469;28;20475;-63
2023/05/22 07:26:45;;;;;;;54.92;52.13;;;;;;;;;;4961106;28;20050;-62
2023/05/22 07:29:12;;;;;;;49.95;47.35;;;;;;;;;;4962000;28;20143;-60
2023/05/22 07:31:37;;;;;;;43.00;40.72;;;;;;;;;;4959409;28;20043;-62
2023/05/22 07:34:03;;;;;;;43.15;40.80;;;;;;;;;;4965087;28;20031;-62
2023/05/22 07:36:28;;;;;;;42.15;38.60;;;;;;;;;;4961207;28;20373;-60
2023/05/22 07:38:54;;;;;;;43.20;41.00;;;;;;;;;;4961072;28;20173;-60
2023/05/22 07:41:21;;;;;;;42.65;40.45;;;;;;;;;;4958599;28;20038;-62
2023/05/22 07:43:46;;;;;;;43.85;41.45;;;;;;;;;;4961972;28;20038;-60
2023/05/22 07:46:12;;;;;;;43.03;40.65;;;;;;;;;;4961903;28;20050;-63
2023/05/22 07:48:37;;;;;;;49.15;46.60;;;;;;;;;;4963407;28;20039;-60
2023/05/22 07:51:03;;;;;;;51.13;48.55;;;;;;;;;;4959114;28;20045;-62
2023/05/22 07:53:28;;;;;;;64.32;61.05;;;;;;;;;;4959726;28;20194;-60
2023/05/22 07:55:53;;;;;;;60.60;57.47;;;;;;;;;;4958183;28;20449;-63
2023/05/22 07:58:19;;;;;;;61.15;58.03;;;;;;;;;;4959215;28;20445;-63
2023/05/22 08:00:45;;;;;;;70.63;66.93;;;;;;;;;;4959686;28;20461;-62
2023/05/22 08:03:10;;;;;;;81.47;77.38;;;;;;;;;;4959525;28;20027;-62
2023/05/22 08:05:36;;;;;;;72.20;68.57;;;;;;;;;;4957511;28;20519;-62
2023/05/22 08:08:02;;;;;;;83.20;78.97;;;;;;;;;;4959961;28;20030;-60
2023/05/22 08:10:28;;;;;;;89.07;83.47;;;;;;;;;;4961802;28;20028;-60
2023/05/22 08:12:53;;;;;;;97.22;92.32;;;;;;;;;;4962150;28;20035;-60
2023/05/22 08:15:18;;;;;;;92.22;87.55;;;;;;;;;;4958785;28;20039;-60
2023/05/22 08:17:44;;;;;;;71.55;67.75;;;;;;;;;;4961066;28;20050;-60
2023/05/22 08:20:10;;;;;;;77.05;73.22;;;;;;;;;;4963174;28;20034;-60
2023/05/22 08:22:37;;;;;;;113.45;107.70;;;;;;;;;;4961586;28;20034;-60
2023/05/22 08:25:03;;;;;;;76.20;72.38;;;;;;;;;;4959998;28;20057;-63
2023/05/22 08:27:29;;;;;;;74.90;71.13;;;;;;;;;;4957295;28;20135;-63
2023/05/22 08:29:55;;;;;;;94.15;89.40;;;;;;;;;;4958941;28;20113;-60
2023/05/22 08:32:20;;;;;;;93.85;89.07;;;;;;;;;;4961718;28;20035;-62
2023/05/22 08:34:46;;;;;;;96.13;91.32;;;;;;;;;;4960163;28;20058;-62
2023/05/22 08:37:15;;;;;;;91.32;86.75;;;;;;;;;;4957482;28;20043;-63
2023/05/22 08:39:40;;;;;;;78.72;74.68;;;;;;;;;;4955420;28;20564;-62
2023/05/22 08:42:06;;;;;;;90.22;85.60;;;;;;;;;;4959885;28;20045;-62
2023/05/22 08:44:32;;;;;;;77.20;73.38;;;;;;;;;;4961018;28;20041;-62
2023/05/22 08:47:00;;;;;;;78.05;74.07;;;;;;;;;;4959615;28;20027;-62
2023/05/22 08:49:25;;;;;;;111.72;106.15;;;;;;;;;;4962975;28;20038;-62
2023/05/22 08:52:04;;;;;;;139.52;132.63;;;;;;;;;;4957490;28;20039;-62
2023/05/22 08:54:32;;;;;;;144.00;136.82;;;;;;;;;;4960172;28;20034;-62
2023/05/22 08:56:57;;;;;;;79.05;75.10;;;;;;;;;;4956972;28;20089;-63
2023/05/22 08:59:23;;;;;;;84.65;80.40;;;;;;;;;;4959538;28;20512;-63
2023/05/22 09:01:51;;;;;;;85.22;80.93;;;;;;;;;;4962486;28;20050;-63
2023/05/22 09:04:17;;;;;;;87.72;83.30;;;;;;;;;;4961351;28;20050;-62
2023/05/22 09:06:46;;;;;;;89.97;85.35;;;;;;;;;;4958103;28;20424;-62
2023/05/22 09:09:11;;;;;;;91.32;86.57;;;;;;;;;;4958087;28;20125;-62
2023/05/22 09:11:37;;;;;;;92.03;87.38;;;;;;;;;;4960232;28;20617;-62
2023/05/22 09:14:09;;;;;;;93.90;89.15;;;;;;;;;;4958403;28;20026;-63
2023/05/22 09:16:48;;;;;;;102.70;97.57;;;;;;;;;;4956559;28;20031;-63
2023/05/22 09:19:14;;;;;;;105.22;99.95;;;;;;;;;;4957021;28;20038;-63
2023/05/22 09:21:40;;;;;;;110.65;105.07;;;;;;;;;;4960391;28;20058;-64
2023/05/22 09:24:09;;;;;;;106.57;101.20;;;;;;;;;;4962059;28;20045;-62
2023/05/22 09:26:35;;;;;;;105.55;100.30;;;;;;;;;;4956852;28;20104;-62
2023/05/22 09:29:01;;;;;;;103.97;98.80;;;;;;;;;;4959228;28;20035;-62
2023/05/22 09:31:30;;;;;;;100.68;95.70;;;;;;;;;;4962294;28;20074;-63
2023/05/22 09:33:56;;;;;;;102.20;96.97;;;;;;;;;;4959843;28;20026;-62
2023/05/22 09:36:34;;;;;;;99.22;94.28;;;;;;;;;;4957206;28;20123;-63
2023/05/22 09:39:00;;;;;;;110.20;104.75;;;;;;;;;;4958071;28;20457;-62
2023/05/22 09:41:29;;;;;;;119.25;113.32;;;;;;;;;;4958790;28;20109;-62
2023/05/22 09:43:54;;;;;;;86.00;81.63;;;;;;;;;;4960240;28;20041;-63
2023/05/22 09:46:20;;;;;;;123.88;117.70;;;;;;;;;;4958972;28;20440;-63
2023/05/22 09:48:50;;;;;;;121.80;115.65;;;;;;;;;;4952298;28;20556;-62
2023/05/22 09:51:18;;;;;;;119.30;113.18;;;;;;;;;;4957953;28;20039;-62
2023/05/22 09:53:45;;;;;;;130.32;123.82;;;;;;;;;;4958935;28;20035;-64
2023/05/22 09:56:12;;;;;;;113.10;107.50;;;;;;;;;;4958193;28;20039;-61
2023/05/22 09:58:40;;;;;;;107.55;102.15;;;;;;;;;;4955724;28;20100;-61
2023/05/22 10:01:09;;;;;;;127.75;121.35;;;;;;;;;;4959284;28;20792;-60
2023/05/22 10:03:35;;;;;;;124.70;118.43;;;;;;;;;;4954506;28;20038;-60
2023/05/22 10:06:01;;;;;;;124.90;118.65;;;;;;;;;;4958966;28;20465;-61
2023/05/22 10:08:27;;;;;;;124.18;117.93;;;;;;;;;;4959867;28;20073;-62
2023/05/22 10:10:53;;;;;;;116.85;110.95;;;;;;;;;;4956458;28;20042;-62
2023/05/22 10:13:19;;;;;;;135.32;128.57;;;;;;;;;;4959261;28;20130;-62
2023/05/22 10:15:49;;;;;;;127.55;121.03;;;;;;;;;;4954995;28;20057;-59
2023/05/22 10:18:16;;;;;;;116.70;110.85;;;;;;;;;;4958588;28;20030;-61
2023/05/22 10:20:41;;;;;;;133.57;126.93;;;;;;;;;;4956107;28;20111;-58
2023/05/22 10:23:08;;;;;;;116.00;110.07;;;;;;;;;;4959353;28;20453;-64
2023/05/22 10:25:36;;;;;;;139.63;132.57;;;;;;;;;;4958200;28;20035;-62
2023/05/22 10:28:02;;;;;;;119.78;113.80;;;;;;;;;;4962992;28;20813;-62
2023/05/22 10:30:53;;;;;;;136.77;129.95;;;;;;;;;;4958135;28;20038;-62
2023/05/22 10:33:32;;;;;;;125.72;119.05;;;;;;;;;;4972625;28;20042;-62
2023/05/22 10:36:04;;;;;;;131.50;125.00;;;;;;;;;;4957021;28;20540;-62
2023/05/22 10:38:56;;;;;;;125.78;119.53;;;;;;;;;;4959854;28;20145;-59
2023/05/22 10:41:22;;;;;;;116.63;110.80;;;;;;;;;;4958211;28;20045;-62
2023/05/22 10:43:49;;;;;;;119.85;113.85;;;;;;;;;;4960348;28;20047;-62
2023/05/22 10:46:15;;;;;;;120.53;114.47;;;;;;;;;;4957277;28;20044;-62
2023/05/22 10:48:45;;;;;;;123.70;117.50;;;;;;;;;;4953598;28;20483;-62
2023/05/22 10:51:18;;;;;;;105.30;100.05;;;;;;;;;;4956926;28;20568;-64
2023/05/22 10:53:46;;;;;;;119.38;113.35;;;;;;;;;;4958574;28;20041;-63
2023/05/22 10:56:13;;;;;;;112.32;106.70;;;;;;;;;;4960829;28;20039;-62
2023/05/22 10:58:42;;;;;;;109.70;104.20;;;;;;;;;;4954033;28;20093;-61
2023/05/22 11:01:14;;;;;;;111.85;106.20;;;;;;;;;;4957077;28;20039;-62
2023/05/22 11:03:59;;;;;;;116.13;110.35;;;;;;;;;;4955734;28;20089;-62
2023/05/22 11:06:40;;;;;;;107.55;102.07;;;;;;;;;;4958233;28;20038;-61
2023/05/22 11:09:27;;;;;;;112.43;106.88;;;;;;;;;;4961735;28;20045;-62
2023/05/22 11:12:20;;;;;;;71.10;67.47;;;;;;;;;;4961343;28;20125;-62
2023/05/22 11:14:58;;;;;;;74.85;70.55;;;;;;;;;;4961544;28;20457;-62
2023/05/22 11:17:26;;;;;;;70.07;66.53;;;;;;;;;;4959735;28;21087;-62
2023/05/22 11:20:19;;;;;;;72.32;68.65;;;;;;;;;;4959000;28;20097;-63
2023/05/22 11:23:00;;;;;;;80.82;76.78;;;;;;;;;;4958406;28;20039;-63
2023/05/22 11:25:26;;;;;;;80.03;75.85;;;;;;;;;;4960398;28;20034;-63
2023/05/22 11:27:52;;;;;;;75.15;71.35;;;;;;;;;;4960979;28;20126;-63
2023/05/22 11:30:19;;;;;;;75.28;71.00;;;;;;;;;;4976179;28;20838;-64
2023/05/22 11:32:45;;;;;;;65.50;62.13;;;;;;;;;;4960605;28;20027;-62
2023/05/22 11:35:15;;;;;;;67.65;63.78;;;;;;;;;;4961185;28;20468;-63
2023/05/22 11:37:41;;;;;;;73.28;69.55;;;;;;;;;;4958196;28;20042;-63
2023/05/22 11:40:07;;;;;;;71.93;68.18;;;;;;;;;;4961678;28;20447;-63
2023/05/22 11:42:34;;;;;;;69.75;66.05;;;;;;;;;;4961197;28;20056;-63
2023/05/22 11:45:00;;;;;;;78.63;74.57;;;;;;;;;;4963505;28;20049;-63
2023/05/22 11:47:28;;;;;;;76.43;72.60;;;;;;;;;;4957841;28;20544;-64
2023/05/22 11:49:55;;;;;;;73.05;69.35;;;;;;;;;;4958524;28;20042;-63
2023/05/22 11:52:21;;;;;;;73.35;69.60;;;;;;;;;;4959800;28;20137;-63
2023/05/22 11:54:46;;;;;;;81.80;77.65;;;;;;;;;;4960056;28;20616;-64
2023/05/22 11:57:13;;;;;;;75.65;71.80;;;;;;;;;;4961118;28;20034;-63
2023/05/22 11:59:38;;;;;;;73.55;69.47;;;;;;;;;;4959172;28;20492;-64
2023/05/22 12:02:06;;;;;;;72.32;68.70;;;;;;;;;;4961473;28;20038;-64
2023/05/22 12:04:32;;;;;;;84.85;80.60;;;;;;;;;;4961346;28;20477;-63
2023/05/22 12:06:58;;;;;;;80.13;76.03;;;;;;;;;;4960012;28;20047;-65
2023/05/22 12:09:26;;;;;;;80.43;76.38;;;;;;;;;;4959434;28;20045;-65
2023/05/22 12:11:54;;;;;;;95.80;90.97;;;;;;;;;;4958744;28;20178;-65
2023/05/22 12:14:25;;;;;;;81.43;77.32;;;;;;;;;;4958158;28;20126;-64
2023/05/22 12:16:51;;;;;;;85.38;81.10;;;;;;;;;;4958191;28;20070;-65
2023/05/22 12:19:17;;;;;;;106.50;101.18;;;;;;;;;;4963344;28;20034;-65
2023/05/22 12:21:43;;;;;;;114.88;109.20;;;;;;;;;;4966675;28;20049;-63
2023/05/22 12:24:09;;;;;;;140.07;132.95;;;;;;;;;;4959924;28;20039;-65
2023/05/22 12:26:35;;;;;;;90.95;86.30;;;;;;;;;;4956501;28;20093;-64
2023/05/22 12:29:01;;;;;;;130.57;124.07;;;;;;;;;;4961056;28;20472;-63
2023/05/22 12:31:26;;;;;;;126.47;119.97;;;;;;;;;;4960781;28;20041;-64
2023/05/22 12:33:56;;;;;;;125.68;119.28;;;;;;;;;;4963513;28;20035;-63
2023/05/22 12:36:38;;;;;;;143.85;136.63;;;;;;;;;;4958861;28;20512;-64
2023/05/22 12:39:17;;;;;;;154.02;146.40;;;;;;;;;;4960202;28;20457;-64
2023/05/22 12:41:44;;;;;;;151.48;143.90;;;;;;;;;;4958757;28;20093;-66
2023/05/22 12:44:09;;;;;;;153.85;146.05;;;;;;;;;;4958792;28;20043;-64
2023/05/22 12:46:35;;;;;;;140.88;133.77;;;;;;;;;;4959428;28;20035;-64
2023/05/22 12:49:00;;;;;;;157.15;149.25;;;;;;;;;;4958189;28;20055;-64
2023/05/22 12:51:30;;;;;;;154.27;146.50;;;;;;;;;;4960216;28;20035;-64
2023/05/22 12:54:00;;;;;;;159.00;151.07;;;;;;;;;;4960341;28;20046;-64
2023/05/22 12:56:26;;;;;;;126.57;120.28;;;;;;;;;;4958377;28;20047;-65
2023/05/22 12:58:51;;;;;;;163.98;155.80;;;;;;;;;;4957479;28;20039;-64
2023/05/22 13:01:17;;;;;;;169.13;160.80;;;;;;;;;;4955078;28;20457;-64
2023/05/22 13:03:45;;;;;;;160.32;152.32;;;;;;;;;;4958684;28;20035;-63
2023/05/22 13:06:11;;;;;;;150.27;142.77;;;;;;;;;;4959843;28;20069;-63
2023/05/22 13:08:36;;;;;;;149.82;142.30;;;;;;;;;;4962125;28;20559;-64
2023/05/22 13:11:02;;;;;;;158.23;150.35;;;;;;;;;;4958927;28;20068;-64
2023/05/22 13:13:27;;;;;;;113.95;108.18;;;;;;;;;;4957279;28;20031;-65
2023/05/22 13:15:52;;;;;;;128.15;121.68;;;;;;;;;;4960638;28;20615;-64
2023/05/22 13:18:18;;;;;;;165.63;157.35;;;;;;;;;;4960442;28;20058;-65
2023/05/22 13:20:43;;;;;;;148.15;140.68;;;;;;;;;;4959049;28;20369;-64
2023/05/22 13:23:09;;;;;;;158.95;150.95;;;;;;;;;;4956859;28;20039;-63
2023/05/22 13:25:34;;;;;;;165.60;157.40;;;;;;;;;;4960190;28;20031;-64
2023/05/22 13:28:00;;;;;;;160.32;152.43;;;;;;;;;;4959378;28;20452;-64
2023/05/22 13:30:27;;;;;;;152.43;144.70;;;;;;;;;;4958069;28;20039;-64
2023/05/22 13:32:53;;;;;;;144.43;136.52;;;;;;;;;;4958592;28;20046;-64
2023/05/22 13:35:18;;;;;;;126.07;119.80;;;;;;;;;;4959426;28;20030;-64
2023/05/22 13:37:44;;;;;;;130.77;123.93;;;;;;;;;;4958284;28;20034;-64
2023/05/22 13:40:09;;;;;;;129.95;123.50;;;;;;;;;;4962230;28;20057;-64
2023/05/22 13:42:35;;;;;;;128.63;122.25;;;;;;;;;;4959243;28;20236;-65
2023/05/22 13:45:02;;;;;;;122.35;116.13;;;;;;;;;;4959854;28;20138;-64
2023/05/22 13:47:28;;;;;;;119.65;113.68;;;;;;;;;;4956311;28;20357;-65
2023/05/22 13:49:53;;;;;;;138.18;131.27;;;;;;;;;;4957846;28;20039;-63
2023/05/22 13:52:18;;;;;;;134.65;127.95;;;;;;;;;;4956710;28;20035;-63
2023/05/22 13:54:44;;;;;;;145.32;138.13;;;;;;;;;;4960060;28;20027;-64
2023/05/22 13:57:09;;;;;;;138.18;131.27;;;;;;;;;;4958585;28;20042;-64
2023/05/22 13:59:34;;;;;;;123.95;117.75;;;;;;;;;;4957303;28;20615;-65
2023/05/22 14:02:00;;;;;;;136.52;129.60;;;;;;;;;;4961277;28;20042;-64
2023/05/22 14:04:25;;;;;;;148.38;140.98;;;;;;;;;;4958675;28;20446;-64
2023/05/22 14:06:51;;;;;;;135.90;129.15;;;;;;;;;;4957657;28;20031;-64
2023/05/22 14:09:16;;;;;;;152.80;145.27;;;;;;;;;;4958421;28;20039;-65
2023/05/22 14:11:42;;;;;;;138.70;131.77;;;;;;;;;;4955343;28;20118;-64